Reading, Michigan
Current Conditions -  °F | °C
As of 9:15 PM on Saturday 25 Oct 2014 (Local Time) from KJYM Reporting Station
Clear Clear  
Wind Chill: 55°   Ceiling: Unl
Heat Index: 55°   Visibility: 10mi
Dew Point: 33°   Wind: 9mph
Humidity: 44%   Direction: 300°WNW
Pressure: 29.85"   Gusts: NA
Location:  41.84°N, 84.75°W
Report Text: KJYM 260115Z AUTO 30008KT 10SM CLR 13/01 A2985 RMK AO2 T01270006
Loading
Personal Weather Stations






























Interactive Weather Map
Tropical Storm Tracking
New forecast layout! Learn more

10-Day Weather Forecast

Advertisements
Track Severe Weather on mobile